sensor_id;sensor_type;location;lat;lon;timestamp;pressure;altitude;pressure_sealevel;temperature;humidity
45327;BME280;31062;49.678;24.560;2024-02-14T00:02:12;98328.94;;;4.68;78.22
45327;BME280;31062;49.678;24.560;2024-02-14T00:04:58;98331.88;;;4.70;78.42
45327;BME280;31062;49.678;24.560;2024-02-14T00:07:44;98282.06;;;4.32;78.96
45327;BME280;31062;49.678;24.560;2024-02-14T00:10:30;98338.44;;;4.67;79.24
45327;BME280;31062;49.678;24.560;2024-02-14T00:13:16;98334.34;;;4.60;78.88
45327;BME280;31062;49.678;24.560;2024-02-14T00:16:04;98335.06;;;4.61;79.35
45327;BME280;31062;49.678;24.560;2024-02-14T00:18:53;98349.00;;;4.63;79.43
45327;BME280;31062;49.678;24.560;2024-02-14T00:21:39;98346.78;;;4.61;79.33
45327;BME280;31062;49.678;24.560;2024-02-14T00:24:26;98336.19;;;4.44;79.03
45327;BME280;31062;49.678;24.560;2024-02-14T00:27:15;98355.16;;;4.56;78.87
45327;BME280;31062;49.678;24.560;2024-02-14T00:30:04;98352.63;;;4.58;78.43
45327;BME280;31062;49.678;24.560;2024-02-14T00:32:50;98360.25;;;4.51;77.92
45327;BME280;31062;49.678;24.560;2024-02-14T00:35:36;98344.81;;;4.48;77.88
45327;BME280;31062;49.678;24.560;2024-02-14T00:38:22;98366.78;;;4.48;77.63
45327;BME280;31062;49.678;24.560;2024-02-14T00:41:11;98254.38;;;3.83;77.59
45327;BME280;31062;49.678;24.560;2024-02-14T00:43:56;98357.06;;;4.47;77.33
45327;BME280;31062;49.678;24.560;2024-02-14T00:46:43;98358.34;;;4.46;77.12
45327;BME280;31062;49.678;24.560;2024-02-14T00:49:29;98359.81;;;4.47;77.01
45327;BME280;31062;49.678;24.560;2024-02-14T00:52:17;98360.88;;;4.44;77.48
45327;BME280;31062;49.678;24.560;2024-02-14T00:55:04;98357.91;;;4.42;77.70
45327;BME280;31062;49.678;24.560;2024-02-14T00:57:49;98359.63;;;4.45;77.91
45327;BME280;31062;49.678;24.560;2024-02-14T01:04:23;98359.41;;;4.43;78.66
45327;BME280;31062;49.678;24.560;2024-02-14T01:07:10;98369.63;;;4.43;79.26
45327;BME280;31062;49.678;24.560;2024-02-14T01:09:56;98371.47;;;4.40;79.77
45327;BME280;31062;49.678;24.560;2024-02-14T01:12:43;98369.97;;;4.39;80.27
45327;BME280;31062;49.678;24.560;2024-02-14T01:15:29;98338.97;;;4.18;80.39
45327;BME280;31062;49.678;24.560;2024-02-14T01:18:15;98370.84;;;4.34;80.94
45327;BME280;31062;49.678;24.560;2024-02-14T01:21:20;98373.56;;;4.34;81.34
45327;BME280;31062;49.678;24.560;2024-02-14T01:24:07;98380.09;;;4.31;81.79
45327;BME280;31062;49.678;24.560;2024-02-14T01:26:54;98381.19;;;4.28;82.06
45327;BME280;31062;49.678;24.560;2024-02-14T01:30:00;98379.69;;;4.27;82.28
45327;BME280;31062;49.678;24.560;2024-02-14T01:33:06;98380.75;;;4.24;82.44
45327;BME280;31062;49.678;24.560;2024-02-14T01:36:12;98381.81;;;4.21;83.12
45327;BME280;31062;49.678;24.560;2024-02-14T01:39:17;98388.25;;;4.24;83.26
45327;BME280;31062;49.678;24.560;2024-02-14T01:42:23;98393.31;;;4.20;83.46
45327;BME280;31062;49.678;24.560;2024-02-14T01:45:29;98384.22;;;4.11;84.18
45327;BME280;31062;49.678;24.560;2024-02-14T01:48:35;98388.25;;;4.10;84.63
45327;BME280;31062;49.678;24.560;2024-02-14T01:51:43;98390.47;;;4.12;84.42
45327;BME280;31062;49.678;24.560;2024-02-14T01:54:51;98385.53;;;4.10;84.86
45327;BME280;31062;49.678;24.560;2024-02-14T01:57:57;98384.16;;;4.04;85.33
45327;BME280;31062;49.678;24.560;2024-02-14T02:01:03;98395.41;;;4.00;85.31
45327;BME280;31062;49.678;24.560;2024-02-14T02:03:50;98402.72;;;3.98;85.53
45327;BME280;31062;49.678;24.560;2024-02-14T02:06:37;98401.00;;;3.95;85.85
45327;BME280;31062;49.678;24.560;2024-02-14T02:09:23;98401.22;;;3.97;85.70
45327;BME280;31062;49.678;24.560;2024-02-14T02:12:08;98400.81;;;3.93;85.53
45327;BME280;31062;49.678;24.560;2024-02-14T02:14:55;98404.06;;;3.91;85.34
45327;BME280;31062;49.678;24.560;2024-02-14T02:17:41;98405.84;;;3.89;85.66
45327;BME280;31062;49.678;24.560;2024-02-14T02:20:28;98406.19;;;3.85;85.36
45327;BME280;31062;49.678;24.560;2024-02-14T02:23:14;98400.28;;;3.81;85.50
45327;BME280;31062;49.678;24.560;2024-02-14T02:26:03;98407.97;;;3.83;85.75
45327;BME280;31062;49.678;24.560;2024-02-14T02:28:49;98410.69;;;3.83;85.60
45327;BME280;31062;49.678;24.560;2024-02-14T02:31:35;98422.94;;;3.82;85.43
45327;BME280;31062;49.678;24.560;2024-02-14T02:34:21;98418.94;;;3.83;85.34
45327;BME280;31062;49.678;24.560;2024-02-14T02:37:07;98422.94;;;3.82;85.02
45327;BME280;31062;49.678;24.560;2024-02-14T02:39:56;98424.00;;;3.79;84.71
45327;BME280;31062;49.678;24.560;2024-02-14T02:42:42;98423.34;;;3.73;84.35
45327;BME280;31062;49.678;24.560;2024-02-14T02:45:28;98434.97;;;3.79;84.40
45327;BME280;31062;49.678;24.560;2024-02-14T02:48:14;98436.63;;;3.82;83.72
45327;BME280;31062;49.678;24.560;2024-02-14T02:51:00;98444.88;;;3.82;83.55
45327;BME280;31062;49.678;24.560;2024-02-14T02:53:47;98449.63;;;3.81;83.44
45327;BME280;31062;49.678;24.560;2024-02-14T02:56:33;98317.94;;;2.83;83.54
45327;BME280;31062;49.678;24.560;2024-02-14T02:59:19;98452.44;;;3.76;83.62
45327;BME280;31062;49.678;24.560;2024-02-14T03:02:05;98457.94;;;3.76;83.45
45327;BME280;31062;49.678;24.560;2024-02-14T03:04:54;98464.47;;;3.73;83.47
45327;BME280;31062;49.678;24.560;2024-02-14T03:07:40;98456.47;;;3.75;83.23
45327;BME280;31062;49.678;24.560;2024-02-14T03:10:28;98468.72;;;3.74;81.81
45327;BME280;31062;49.678;24.560;2024-02-14T03:13:15;98467.44;;;3.75;81.97
45327;BME280;31062;49.678;24.560;2024-02-14T03:16:03;98474.38;;;3.76;82.06
45327;BME280;31062;49.678;24.560;2024-02-14T03:18:50;98475.13;;;3.76;81.44
45327;BME280;31062;49.678;24.560;2024-02-14T03:21:36;98483.91;;;3.75;81.14
45327;BME280;31062;49.678;24.560;2024-02-14T03:24:22;98487.91;;;3.74;80.89
45327;BME280;31062;49.678;24.560;2024-02-14T03:27:10;98487.69;;;3.72;80.47
45327;BME280;31062;49.678;24.560;2024-02-14T03:29:56;98475.81;;;3.63;79.56
45327;BME280;31062;49.678;24.560;2024-02-14T03:32:46;98429.03;;;3.29;79.48
45327;BME280;31062;49.678;24.560;2024-02-14T03:35:32;98505.38;;;3.70;77.87
45327;BME280;31062;49.678;24.560;2024-02-14T03:38:28;98504.34;;;3.74;78.11
45327;BME280;31062;49.678;24.560;2024-02-14T03:41:13;98514.88;;;3.69;76.85
45327;BME280;31062;49.678;24.560;2024-02-14T03:43:59;98508.34;;;3.73;76.64
45327;BME280;31062;49.678;24.560;2024-02-14T03:46:46;98499.91;;;3.70;76.53
45327;BME280;31062;49.678;24.560;2024-02-14T03:49:33;98511.84;;;3.73;75.75
45327;BME280;31062;49.678;24.560;2024-02-14T03:52:22;98516.81;;;3.75;75.61
45327;BME280;31062;49.678;24.560;2024-02-14T03:55:10;98500.13;;;3.73;75.74
45327;BME280;31062;49.678;24.560;2024-02-14T03:58:01;98508.56;;;3.75;74.35
45327;BME280;31062;49.678;24.560;2024-02-14T04:00:52;98496.31;;;3.62;73.71
45327;BME280;31062;49.678;24.560;2024-02-14T04:03:38;98512.34;;;3.72;73.21
45327;BME280;31062;49.678;24.560;2024-02-14T04:06:23;98520.34;;;3.69;73.13
45327;BME280;31062;49.678;24.560;2024-02-14T04:09:10;98517.91;;;3.66;73.39
45327;BME280;31062;49.678;24.560;2024-02-14T04:11:56;98484.63;;;3.43;73.76
45327;BME280;31062;49.678;24.560;2024-02-14T04:14:42;98519.41;;;3.67;74.10
45327;BME280;31062;49.678;24.560;2024-02-14T04:17:28;98521.63;;;3.68;74.56
45327;BME280;31062;49.678;24.560;2024-02-14T04:20:14;98524.38;;;3.68;74.87
45327;BME280;31062;49.678;24.560;2024-02-14T04:23:00;98525.41;;;3.65;75.63
45327;BME280;31062;49.678;24.560;2024-02-14T04:25:46;98525.19;;;3.63;76.83
45327;BME280;31062;49.678;24.560;2024-02-14T04:28:33;98523.91;;;3.64;77.54
45327;BME280;31062;49.678;24.560;2024-02-14T04:31:19;98512.53;;;3.60;78.07
45327;BME280;31062;49.678;24.560;2024-02-14T04:34:05;98528.38;;;3.67;79.07
45327;BME280;31062;49.678;24.560;2024-02-14T04:36:55;98491.38;;;3.42;80.18
45327;BME280;31062;49.678;24.560;2024-02-14T04:39:42;98528.38;;;3.67;80.52
45327;BME280;31062;49.678;24.560;2024-02-14T04:42:28;98526.88;;;3.66;81.20
45327;BME280;31062;49.678;24.560;2024-02-14T04:45:14;98532.38;;;3.66;82.07
45327;BME280;31062;49.678;24.560;2024-02-14T04:48:00;98534.16;;;3.64;81.75
45327;BME280;31062;49.678;24.560;2024-02-14T04:50:46;98531.94;;;3.62;81.99
45327;BME280;31062;49.678;24.560;2024-02-14T04:53:32;98542.44;;;3.58;81.87
45327;BME280;31062;49.678;24.560;2024-02-14T04:56:18;98548.69;;;3.59;81.66
45327;BME280;31062;49.678;24.560;2024-02-14T04:59:04;98547.19;;;3.58;81.56
45327;BME280;31062;49.678;24.560;2024-02-14T05:01:51;98555.97;;;3.56;81.53
45327;BME280;31062;49.678;24.560;2024-02-14T05:04:39;98554.75;;;3.52;81.59
45327;BME280;31062;49.678;24.560;2024-02-14T05:07:24;98561.53;;;3.51;81.66
45327;BME280;31062;49.678;24.560;2024-02-14T05:10:10;98548.50;;;3.38;82.15
45327;BME280;31062;49.678;24.560;2024-02-14T05:12:57;98564.78;;;3.49;82.49
45327;BME280;31062;49.678;24.560;2024-02-14T05:15:42;98559.06;;;3.47;82.80
45327;BME280;31062;49.678;24.560;2024-02-14T05:18:28;98574.47;;;3.50;82.79
45327;BME280;31062;49.678;24.560;2024-02-14T05:21:15;98564.78;;;3.49;82.89
45327;BME280;31062;49.678;24.560;2024-02-14T05:24:02;98571.50;;;3.48;82.89
45327;BME280;31062;49.678;24.560;2024-02-14T05:26:49;98574.75;;;3.47;83.21
45327;BME280;31062;49.678;24.560;2024-02-14T05:29:35;98577.00;;;3.48;82.87
45327;BME280;31062;49.678;24.560;2024-02-14T05:32:21;98586.47;;;3.47;82.79
45327;BME280;31062;49.678;24.560;2024-02-14T05:35:07;98587.22;;;3.48;83.10
45327;BME280;31062;49.678;24.560;2024-02-14T05:37:54;98590.47;;;3.46;82.85
45327;BME280;31062;49.678;24.560;2024-02-14T05:40:41;98593.00;;;3.44;83.05
45327;BME280;31062;49.678;24.560;2024-02-14T05:43:29;98594.78;;;3.42;83.21
45327;BME280;31062;49.678;24.560;2024-02-14T05:46:15;98595.81;;;3.39;83.25
45327;BME280;31062;49.678;24.560;2024-02-14T05:49:00;98590.63;;;3.35;83.07
45327;BME280;31062;49.678;24.560;2024-02-14T05:51:46;98611.97;;;3.42;82.72
45327;BME280;31062;49.678;24.560;2024-02-14T05:54:32;98607.72;;;3.41;82.69
45327;BME280;31062;49.678;24.560;2024-02-14T05:57:18;98603.50;;;3.40;82.44
45327;BME280;31062;49.678;24.560;2024-02-14T06:00:06;98616.19;;;3.43;82.06
45327;BME280;31062;49.678;24.560;2024-02-14T06:02:56;98610.47;;;3.41;81.59
45327;BME280;31062;49.678;24.560;2024-02-14T06:05:42;98624.41;;;3.43;81.17
45327;BME280;31062;49.678;24.560;2024-02-14T06:08:27;98625.66;;;3.42;81.39
45327;BME280;31062;49.678;24.560;2024-02-14T06:11:13;98624.41;;;3.43;81.77
45327;BME280;31062;49.678;24.560;2024-02-14T06:14:00;98630.84;;;3.46;81.83
45327;BME280;31062;49.678;24.560;2024-02-14T06:16:46;98624.84;;;3.47;81.69
45327;BME280;31062;49.678;24.560;2024-02-14T06:19:31;98628.84;;;3.46;81.50
45327;BME280;31062;49.678;24.560;2024-02-14T06:22:20;98631.59;;;3.46;81.64
45327;BME280;31062;49.678;24.560;2024-02-14T06:25:06;98632.56;;;3.49;81.75
45327;BME280;31062;49.678;24.560;2024-02-14T06:27:52;98638.28;;;3.51;81.84
45327;BME280;31062;49.678;24.560;2024-02-14T06:30:40;98644.50;;;3.51;81.55
45327;BME280;31062;49.678;24.560;2024-02-14T06:33:25;98643.22;;;3.52;81.63
45327;BME280;31062;49.678;24.560;2024-02-14T06:36:12;98636.72;;;3.55;81.88
45327;BME280;31062;49.678;24.560;2024-02-14T06:38:57;98639.69;;;3.57;81.77
45327;BME280;31062;49.678;24.560;2024-02-14T06:41:43;98643.38;;;3.60;81.82
45327;BME280;31062;49.678;24.560;2024-02-14T06:44:30;98641.38;;;3.60;81.64
45327;BME280;31062;49.678;24.560;2024-02-14T06:47:36;98645.03;;;3.68;81.50
45327;BME280;31062;49.678;24.560;2024-02-14T06:50:41;98647.75;;;3.68;81.29
45327;BME280;31062;49.678;24.560;2024-02-14T06:53:48;98645.22;;;3.70;81.42
45327;BME280;31062;49.678;24.560;2024-02-14T06:56:54;98653.44;;;3.70;81.55
45327;BME280;31062;49.678;24.560;2024-02-14T07:00:00;98650.19;;;3.72;81.28
45327;BME280;31062;49.678;24.560;2024-02-14T07:03:06;98662.88;;;3.75;81.69
45327;BME280;31062;49.678;24.560;2024-02-14T07:06:12;98657.31;;;3.81;80.97
45327;BME280;31062;49.678;24.560;2024-02-14T07:08:57;98661.00;;;3.83;81.04
45327;BME280;31062;49.678;24.560;2024-02-14T07:11:43;98637.47;;;3.75;80.81
45327;BME280;31062;49.678;24.560;2024-02-14T07:14:29;98663.66;;;3.89;80.71
45327;BME280;31062;49.678;24.560;2024-02-14T07:17:35;98665.47;;;3.86;80.60
45327;BME280;31062;49.678;24.560;2024-02-14T07:20:21;98636.56;;;3.66;80.76
45327;BME280;31062;49.678;24.560;2024-02-14T07:23:08;98672.13;;;3.91;80.39
45327;BME280;31062;49.678;24.560;2024-02-14T07:25:53;98684.78;;;3.94;80.34
45327;BME280;31062;49.678;24.560;2024-02-14T07:28:39;98681.47;;;4.01;80.38
45327;BME280;31062;49.678;24.560;2024-02-14T07:31:28;98680.44;;;4.04;79.85
45327;BME280;31062;49.678;24.560;2024-02-14T07:34:16;98680.63;;;4.06;79.39
45327;BME280;31062;49.678;24.560;2024-02-14T07:37:02;98675.38;;;4.08;79.26
45327;BME280;31062;49.678;24.560;2024-02-14T07:40:09;98673.69;;;4.05;79.19
45327;BME280;31062;49.678;24.560;2024-02-14T07:43:15;98655.09;;;3.98;78.92
45327;BME280;31062;49.678;24.560;2024-02-14T07:46:20;98682.03;;;4.13;78.27
45327;BME280;31062;49.678;24.560;2024-02-14T07:49:26;98689.84;;;4.08;77.85
45327;BME280;31062;49.678;24.560;2024-02-14T07:52:32;98586.19;;;3.32;78.13
45327;BME280;31062;49.678;24.560;2024-02-14T07:55:38;98688.88;;;4.06;78.18
45327;BME280;31062;49.678;24.560;2024-02-14T07:58:44;98691.84;;;4.08;78.22
45327;BME280;31062;49.678;24.560;2024-02-14T08:01:30;98712.53;;;4.09;77.87
45327;BME280;31062;49.678;24.560;2024-02-14T08:04:16;98697.03;;;4.11;77.51
45327;BME280;31062;49.678;24.560;2024-02-14T08:07:01;98702.50;;;4.11;77.29
45327;BME280;31062;49.678;24.560;2024-02-14T08:09:48;98696.91;;;4.04;76.56
45327;BME280;31062;49.678;24.560;2024-02-14T08:12:34;98694.34;;;4.06;76.99
45327;BME280;31062;49.678;24.560;2024-02-14T08:15:21;98702.38;;;4.04;76.68
45327;BME280;31062;49.678;24.560;2024-02-14T08:18:27;98653.44;;;3.70;77.07
45327;BME280;31062;49.678;24.560;2024-02-14T08:21:33;98699.84;;;4.06;76.87
45327;BME280;31062;49.678;24.560;2024-02-14T08:24:38;98698.66;;;4.01;76.73
45327;BME280;31062;49.678;24.560;2024-02-14T08:27:44;98698.06;;;4.08;76.95
45327;BME280;31062;49.678;24.560;2024-02-14T08:30:50;98705.25;;;4.11;76.31
45327;BME280;31062;49.678;24.560;2024-02-14T08:33:56;98700.72;;;4.14;75.12
45327;BME280;31062;49.678;24.560;2024-02-14T08:37:03;98710.66;;;4.17;74.86
45327;BME280;31062;49.678;24.560;2024-02-14T08:40:08;98706.66;;;4.18;75.09
45327;BME280;31062;49.678;24.560;2024-02-14T08:43:14;98706.13;;;4.20;74.75
45327;BME280;31062;49.678;24.560;2024-02-14T08:46:20;98708.56;;;4.23;74.03
45327;BME280;31062;49.678;24.560;2024-02-14T09:23:18;98717.94;;;4.33;69.64
45327;BME280;31062;49.678;24.560;2024-02-14T09:26:06;98716.88;;;4.36;68.26
45327;BME280;31062;49.678;24.560;2024-02-14T09:29:11;98706.94;;;4.33;67.61
45327;BME280;31062;49.678;24.560;2024-02-14T09:32:17;98725.75;;;4.42;67.77
45327;BME280;31062;49.678;24.560;2024-02-14T09:35:23;98724.72;;;4.45;67.85
45327;BME280;31062;49.678;24.560;2024-02-14T09:38:28;98720.72;;;4.46;67.87
45327;BME280;31062;49.678;24.560;2024-02-14T09:41:40;98724.13;;;4.53;66.11
45327;BME280;31062;49.678;24.560;2024-02-14T09:44:50;98718.41;;;4.50;64.22
45327;BME280;31062;49.678;24.560;2024-02-14T09:48:03;98718.41;;;4.50;65.49
45327;BME280;31062;49.678;24.560;2024-02-14T09:51:10;98718.19;;;4.48;64.40
45327;BME280;31062;49.678;24.560;2024-02-14T09:54:17;98716.69;;;4.47;65.85
45327;BME280;31062;49.678;24.560;2024-02-14T09:57:23;98718.19;;;4.48;65.56
45327;BME280;31062;49.678;24.560;2024-02-14T10:00:31;98712.50;;;4.46;65.73
45327;BME280;31062;49.678;24.560;2024-02-14T10:03:37;98716.31;;;4.57;65.23
45327;BME280;31062;49.678;24.560;2024-02-14T10:06:23;98711.66;;;4.51;64.74
45327;BME280;31062;49.678;24.560;2024-02-14T10:09:11;98716.09;;;4.55;63.10
45327;BME280;31062;49.678;24.560;2024-02-14T10:11:57;98725.59;;;4.53;63.36
45327;BME280;31062;49.678;24.560;2024-02-14T10:15:04;98713.16;;;4.53;62.95
45327;BME280;31062;49.678;24.560;2024-02-14T10:18:11;98700.53;;;4.44;62.18
45327;BME280;31062;49.678;24.560;2024-02-14T10:21:17;98713.16;;;4.53;61.58
45327;BME280;31062;49.678;24.560;2024-02-14T10:24:26;98706.16;;;4.51;62.38
45327;BME280;31062;49.678;24.560;2024-02-14T10:27:31;98711.66;;;4.51;62.45
45327;BME280;31062;49.678;24.560;2024-02-14T10:30:37;98703.19;;;4.49;62.19
45327;BME280;31062;49.678;24.560;2024-02-14T10:33:46;98712.09;;;4.56;61.75
45327;BME280;31062;49.678;24.560;2024-02-14T10:36:56;98707.84;;;4.55;62.24
45327;BME280;31062;49.678;24.560;2024-02-14T10:40:04;98693.69;;;4.50;62.35
45327;BME280;31062;49.678;24.560;2024-02-14T10:43:10;98716.00;;;4.60;62.34
45327;BME280;31062;49.678;24.560;2024-02-14T10:46:20;98716.56;;;4.59;62.38
45327;BME280;31062;49.678;24.560;2024-02-14T10:49:29;98711.78;;;4.59;62.78
45327;BME280;31062;49.678;24.560;2024-02-14T10:52:36;98714.47;;;4.65;62.01
45327;BME280;31062;49.678;24.560;2024-02-14T10:55:47;98724.81;;;4.72;62.20
45327;BME280;31062;49.678;24.560;2024-02-14T10:58:56;98714.56;;;4.72;61.02
45327;BME280;31062;49.678;24.560;2024-02-14T11:02:06;98719.31;;;4.72;59.63
45327;BME280;31062;49.678;24.560;2024-02-14T11:05:15;98715.53;;;4.75;60.92
45327;BME280;31062;49.678;24.560;2024-02-14T11:08:21;98712.47;;;4.78;60.83
45327;BME280;31062;49.678;24.560;2024-02-14T11:11:28;98722.94;;;4.80;59.53
45327;BME280;31062;49.678;24.560;2024-02-14T11:14:35;98718.41;;;4.82;59.31
45327;BME280;31062;49.678;24.560;2024-02-14T11:17:40;98717.22;;;4.78;59.24
45327;BME280;31062;49.678;24.560;2024-02-14T11:20:48;98708.75;;;4.63;57.53
45327;BME280;31062;49.678;24.560;2024-02-14T11:23:54;98618.19;;;3.80;57.33
45327;BME280;31062;49.678;24.560;2024-02-14T11:27:01;98700.19;;;4.66;58.59
45327;BME280;31062;49.678;24.560;2024-02-14T11:30:29;98707.28;;;4.75;59.09
45327;BME280;31062;49.678;24.560;2024-02-14T11:33:35;98718.69;;;4.79;59.07
45327;BME280;31062;49.678;24.560;2024-02-14T11:36:43;98720.31;;;4.87;59.52
45327;BME280;31062;49.678;24.560;2024-02-14T11:39:49;98716.00;;;4.92;58.23
45327;BME280;31062;49.678;24.560;2024-02-14T11:42:55;98706.03;;;4.89;58.03
45327;BME280;31062;49.678;24.560;2024-02-14T11:46:01;98712.41;;;4.97;58.45
45327;BME280;31062;49.678;24.560;2024-02-14T11:49:06;98710.91;;;4.96;58.72
45327;BME280;31062;49.678;24.560;2024-02-14T11:52:12;98704.81;;;5.03;59.97
45327;BME280;31062;49.678;24.560;2024-02-14T11:55:27;98716.22;;;5.07;58.68
45327;BME280;31062;49.678;24.560;2024-02-14T11:58:33;98706.50;;;5.06;58.80
45327;BME280;31062;49.678;24.560;2024-02-14T12:01:39;98707.78;;;5.05;58.88
45327;BME280;31062;49.678;24.560;2024-02-14T12:04:46;98708.94;;;5.10;58.50
45327;BME280;31062;49.678;24.560;2024-02-14T12:07:54;98691.81;;;5.04;58.52
45327;BME280;31062;49.678;24.560;2024-02-14T12:10:59;98704.59;;;5.14;59.17
45327;BME280;31062;49.678;24.560;2024-02-14T12:14:06;98706.72;;;5.21;59.88
45327;BME280;31062;49.678;24.560;2024-02-14T12:16:56;98703.13;;;5.26;58.74
45327;BME280;31062;49.678;24.560;2024-02-14T12:19:45;98712.84;;;5.27;59.05
45327;BME280;31062;49.678;24.560;2024-02-14T12:22:52;98709.69;;;5.23;58.25
45327;BME280;31062;49.678;24.560;2024-02-14T12:26:01;98706.94;;;5.23;58.00
45327;BME280;31062;49.678;24.560;2024-02-14T12:29:08;98702.50;;;5.20;58.06
45327;BME280;31062;49.678;24.560;2024-02-14T12:32:16;98706.50;;;5.19;57.65
45327;BME280;31062;49.678;24.560;2024-02-14T12:35:22;98715.84;;;5.29;58.67
45327;BME280;31062;49.678;24.560;2024-02-14T12:38:28;98725.00;;;5.32;57.16
45327;BME280;31062;49.678;24.560;2024-02-14T12:41:34;98714.34;;;5.28;57.51
45327;BME280;31062;49.678;24.560;2024-02-14T12:44:39;98717.50;;;5.19;56.60
45327;BME280;31062;49.678;24.560;2024-02-14T12:47:45;98721.72;;;5.20;57.61
45327;BME280;31062;49.678;24.560;2024-02-14T12:50:52;98720.25;;;5.19;57.15
45327;BME280;31062;49.678;24.560;2024-02-14T12:53:53;98723.00;;;5.19;57.82
45327;BME280;31062;49.678;24.560;2024-02-14T12:56:59;98715.59;;;5.14;57.72
45327;BME280;31062;49.678;24.560;2024-02-14T13:00:06;98721.09;;;5.14;57.59
45327;BME280;31062;49.678;24.560;2024-02-14T13:03:12;98734.44;;;5.23;57.75
45327;BME280;31062;49.678;24.560;2024-02-14T13:06:18;98744.13;;;5.24;56.89
45327;BME280;31062;49.678;24.560;2024-02-14T13:09:24;98737.38;;;5.25;57.08
45327;BME280;31062;49.678;24.560;2024-02-14T13:12:30;98734.84;;;5.27;57.36
45327;BME280;31062;49.678;24.560;2024-02-14T13:15:36;98738.00;;;5.31;57.47
45327;BME280;31062;49.678;24.560;2024-02-14T13:18:41;98733.78;;;5.30;56.46
45327;BME280;31062;49.678;24.560;2024-02-14T13:21:47;98737.59;;;5.27;56.81
45327;BME280;31062;49.678;24.560;2024-02-14T13:24:53;98743.94;;;5.22;57.34
45327;BME280;31062;49.678;24.560;2024-02-14T13:28:01;98737.56;;;5.14;57.24
45327;BME280;31062;49.678;24.560;2024-02-14T13:31:07;98742.94;;;5.07;57.79
45327;BME280;31062;49.678;24.560;2024-02-14T13:34:12;98729.22;;;4.93;58.21
45327;BME280;31062;49.678;24.560;2024-02-14T13:37:19;98698.59;;;4.58;58.20
45327;BME280;31062;49.678;24.560;2024-02-14T13:40:06;98749.56;;;4.85;59.07
45327;BME280;31062;49.678;24.560;2024-02-14T13:42:55;98719.13;;;4.70;59.56
45327;BME280;31062;49.678;24.560;2024-02-14T13:45:42;98739.66;;;4.82;59.12
45327;BME280;31062;49.678;24.560;2024-02-14T13:48:28;98759.38;;;4.80;58.99
45327;BME280;31062;49.678;24.560;2024-02-14T13:51:14;98742.16;;;4.80;59.20
45327;BME280;31062;49.678;24.560;2024-02-14T13:54:00;98742.16;;;4.80;59.52
45327;BME280;31062;49.678;24.560;2024-02-14T13:56:47;98654.31;;;4.16;59.85
45327;BME280;31062;49.678;24.560;2024-02-14T13:59:34;98751.38;;;4.82;59.55
45327;BME280;31062;49.678;24.560;2024-02-14T14:02:19;98753.56;;;4.84;60.00
45327;BME280;31062;49.678;24.560;2024-02-14T14:05:06;98767.53;;;4.86;59.92
45327;BME280;31062;49.678;24.560;2024-02-14T14:07:53;98758.03;;;4.87;60.17
45327;BME280;31062;49.678;24.560;2024-02-14T14:10:44;98766.19;;;4.92;60.40
45327;BME280;31062;49.678;24.560;2024-02-14T14:13:30;98771.38;;;4.96;58.59
45327;BME280;31062;49.678;24.560;2024-02-14T14:16:18;98763.63;;;4.94;58.16
45327;BME280;31062;49.678;24.560;2024-02-14T14:19:07;98760.38;;;4.96;58.70
45327;BME280;31062;49.678;24.560;2024-02-14T14:21:53;98765.25;;;5.03;59.12
45327;BME280;31062;49.678;24.560;2024-02-14T14:24:59;98759.75;;;5.03;58.45
45327;BME280;31062;49.678;24.560;2024-02-14T14:28:05;98594.72;;;3.98;58.61
45327;BME280;31062;49.678;24.560;2024-02-14T14:31:11;98754.59;;;5.13;58.28
45327;BME280;31062;49.678;24.560;2024-02-14T14:34:17;98752.91;;;5.10;58.29
45327;BME280;31062;49.678;24.560;2024-02-14T14:37:23;98761.88;;;5.10;58.55
45327;BME280;31062;49.678;24.560;2024-02-14T14:40:29;98760.63;;;5.11;58.54
45327;BME280;31062;49.678;24.560;2024-02-14T14:43:35;98769.72;;;5.06;58.31
45327;BME280;31062;49.678;24.560;2024-02-14T14:46:41;98770.53;;;5.01;58.66
45327;BME280;31062;49.678;24.560;2024-02-14T14:49:46;98771.88;;;4.94;57.94
45327;BME280;31062;49.678;24.560;2024-02-14T14:52:52;98770.19;;;4.91;58.50
45327;BME280;31062;49.678;24.560;2024-02-14T14:55:54;98765.22;;;4.90;58.20
45327;BME280;31062;49.678;24.560;2024-02-14T14:59:03;98780.00;;;4.87;58.37
45327;BME280;31062;49.678;24.560;2024-02-14T15:02:09;98726.41;;;4.48;58.63
45327;BME280;31062;49.678;24.560;2024-02-14T15:05:15;98788.03;;;4.85;59.48
45327;BME280;31062;49.678;24.560;2024-02-14T15:08:21;98777.56;;;4.83;59.29
45327;BME280;31062;49.678;24.560;2024-02-14T15:11:27;98776.09;;;4.82;59.01
45327;BME280;31062;49.678;24.560;2024-02-14T15:14:35;98777.66;;;4.78;58.97
45327;BME280;31062;49.678;24.560;2024-02-14T15:17:41;98773.06;;;4.67;59.39
45327;BME280;31062;49.678;24.560;2024-02-14T15:20:47;98789.97;;;4.71;59.68
45327;BME280;31062;49.678;24.560;2024-02-14T15:23:52;98754.38;;;4.47;60.20
45327;BME280;31062;49.678;24.560;2024-02-14T15:26:58;98794.44;;;4.74;60.73
45327;BME280;31062;49.678;24.560;2024-02-14T15:30:07;98787.78;;;4.70;60.89
45327;BME280;31062;49.678;24.560;2024-02-14T15:33:12;98799.41;;;4.76;60.83
45327;BME280;31062;49.678;24.560;2024-02-14T15:36:28;98808.41;;;4.76;60.94
45327;BME280;31062;49.678;24.560;2024-02-14T15:39:34;98799.19;;;4.74;61.24
45327;BME280;31062;49.678;24.560;2024-02-14T15:42:40;98794.72;;;4.71;61.41
45327;BME280;31062;49.678;24.560;2024-02-14T15:45:46;98805.72;;;4.71;61.15
45327;BME280;31062;49.678;24.560;2024-02-14T15:48:52;98690.06;;;3.92;61.20
45327;BME280;31062;49.678;24.560;2024-02-14T15:51:59;98813.31;;;4.65;61.66
45327;BME280;31062;49.678;24.560;2024-02-14T15:55:05;98800.38;;;4.60;61.88
45327;BME280;31062;49.678;24.560;2024-02-14T15:58:14;98808.25;;;4.69;61.84
45327;BME280;31062;49.678;24.560;2024-02-14T16:01:21;98805.50;;;4.69;61.79
45327;BME280;31062;49.678;24.560;2024-02-14T16:04:29;98811.22;;;4.71;62.09
45327;BME280;31062;49.678;24.560;2024-02-14T16:07:36;98811.22;;;4.71;62.20
45327;BME280;31062;49.678;24.560;2024-02-14T16:10:43;98820.41;;;4.73;62.08